createdAt,value
2018-12-04T00:01:45.058Z,124.82
2018-12-04T00:04:34.609Z,139.00
2018-12-04T00:07:22.820Z,137.85
2018-12-04T00:10:11.647Z,151.75
2018-12-04T00:13:00.309Z,154.12
2018-12-04T00:15:49.357Z,152.90
2018-12-04T00:18:37.757Z,159.57
2018-12-04T00:21:27.045Z,168.25
2018-12-04T00:24:15.861Z,161.05
2018-12-04T00:27:05.041Z,160.88
2018-12-04T00:29:53.333Z,161.07
2018-12-04T00:32:41.457Z,170.00
2018-12-04T00:35:30.356Z,168.52
2018-12-04T00:38:19.254Z,165.18
2018-12-04T00:41:07.179Z,167.70
2018-12-04T00:43:55.903Z,177.35
2018-12-04T00:46:44.173Z,174.90
2018-12-04T00:49:34.637Z,168.72
2018-12-04T00:52:23.319Z,179.47
2018-12-04T00:55:13.498Z,171.50
2018-12-04T00:58:02.447Z,168.32
2018-12-04T01:00:51.583Z,152.22
2018-12-04T01:03:40.671Z,157.40
2018-12-04T01:06:29.515Z,160.80
2018-12-04T01:09:17.792Z,154.32
2018-12-04T01:12:06.478Z,151.05
2018-12-04T01:14:55.174Z,149.60
2018-12-04T01:17:42.993Z,158.82
2018-12-04T01:20:31.442Z,157.15
2018-12-04T01:23:19.835Z,154.07
2018-12-04T01:26:09.799Z,150.38
2018-12-04T01:28:58.038Z,157.67
2018-12-04T01:31:47.069Z,153.57
2018-12-04T01:34:36.990Z,155.32
2018-12-04T01:37:26.177Z,149.77
2018-12-04T01:40:14.596Z,149.15
2018-12-04T01:43:04.201Z,148.47
2018-12-04T01:45:52.769Z,150.55
2018-12-04T01:48:41.071Z,160.48
2018-12-04T01:51:29.417Z,153.50
2018-12-04T01:54:18.377Z,158.47
2018-12-04T01:57:07.702Z,149.42
2018-12-04T01:59:56.591Z,149.85
2018-12-04T02:02:44.987Z,144.68
2018-12-04T02:05:33.771Z,157.40
2018-12-04T02:08:22.511Z,145.12
2018-12-04T02:11:11.898Z,142.77
2018-12-04T02:14:00.459Z,146.28
2018-12-04T02:16:49.536Z,141.62
2018-12-04T02:19:38.038Z,141.50
2018-12-04T02:22:26.555Z,147.07
2018-12-04T02:25:14.695Z,151.27
2018-12-04T02:28:05.271Z,147.45
2018-12-04T02:30:53.195Z,160.25
2018-12-04T02:33:41.533Z,152.78
2018-12-04T02:36:34.825Z,142.35
2018-12-04T02:39:25.865Z,142.55
2018-12-04T02:42:14.316Z,151.57
2018-12-04T02:45:03.762Z,144.70
2018-12-04T02:47:52.121Z,137.70
2018-12-04T02:50:41.070Z,142.53
2018-12-04T02:53:31.597Z,144.72
2018-12-04T02:56:20.360Z,132.75
2018-12-04T02:59:09.415Z,132.57
2018-12-04T03:01:57.714Z,143.85
2018-12-04T03:04:46.768Z,139.25
2018-12-04T03:07:35.089Z,136.30
2018-12-04T03:10:23.434Z,141.22
2018-12-04T03:13:12.498Z,138.88
2018-12-04T03:16:03.273Z,135.20
2018-12-04T03:18:52.329Z,133.85
2018-12-04T03:21:40.187Z,127.80
2018-12-04T03:24:27.949Z,130.00
2018-12-04T03:27:15.871Z,128.12
2018-12-04T03:30:04.110Z,127.78
2018-12-04T03:32:52.963Z,130.65
2018-12-04T03:35:42.170Z,127.00
2018-12-04T03:38:31.194Z,122.87
2018-12-04T03:41:19.630Z,128.95
2018-12-04T03:44:09.963Z,120.90
2018-12-04T03:46:59.643Z,127.62
2018-12-04T03:49:49.698Z,137.55
2018-12-04T03:52:38.855Z,131.12
2018-12-04T03:55:27.443Z,135.48
2018-12-04T03:58:15.647Z,127.30
2018-12-04T04:01:05.170Z,134.32
2018-12-04T04:03:53.352Z,123.05
2018-12-04T04:06:41.521Z,132.15
2018-12-04T04:09:32.213Z,129.70
2018-12-04T04:12:24.394Z,126.40
2018-12-04T04:15:13.103Z,123.72
2018-12-04T04:18:02.146Z,124.80
2018-12-04T04:20:52.542Z,122.07
2018-12-04T04:23:43.555Z,111.52
2018-12-04T04:26:32.230Z,112.83
2018-12-04T04:29:20.985Z,123.20
2018-12-04T04:32:09.946Z,126.55
2018-12-04T04:34:58.915Z,480.43
2018-12-04T04:37:47.393Z,354.18
2018-12-04T04:40:35.552Z,245.37
2018-12-04T04:43:24.720Z,242.07
2018-12-04T04:46:14.451Z,205.85
2018-12-04T04:49:03.132Z,194.17
2018-12-04T04:51:52.393Z,185.82
2018-12-04T04:54:42.718Z,180.57
2018-12-04T04:57:34.877Z,204.07
2018-12-04T05:00:27.808Z,184.57
2018-12-04T05:03:17.368Z,175.27
2018-12-04T05:06:05.594Z,178.78
2018-12-04T05:08:54.289Z,179.72
2018-12-04T05:11:44.616Z,155.52
2018-12-04T05:17:50.030Z,146.25
2018-12-04T05:20:41.258Z,140.62
2018-12-04T05:23:31.198Z,139.45
2018-12-04T05:26:20.535Z,138.77
2018-12-04T05:29:13.391Z,132.75
2018-12-04T05:32:03.183Z,137.05
2018-12-04T05:34:51.536Z,125.72
2018-12-04T05:37:46.170Z,124.18
2018-12-04T05:40:36.546Z,121.60
2018-12-04T05:43:26.942Z,118.70
2018-12-04T05:46:16.931Z,117.50
2018-12-04T05:49:04.653Z,109.22
2018-12-04T05:51:56.050Z,108.72
2018-12-04T05:54:44.493Z,108.70
2018-12-04T05:57:33.620Z,110.63
2018-12-04T06:00:23.604Z,110.32
2018-12-04T06:03:11.908Z,106.85
2018-12-04T06:06:00.529Z,103.87
2018-12-04T06:08:51.747Z,107.32
2018-12-04T06:11:42.281Z,101.45
2018-12-04T06:14:31.516Z,96.35
2018-12-04T06:17:26.893Z,91.82
2018-12-04T06:20:19.117Z,96.20
2018-12-04T06:23:10.368Z,107.55
2018-12-04T06:26:02.896Z,97.90
2018-12-04T06:28:52.691Z,90.47
2018-12-04T06:31:41.860Z,99.15
2018-12-04T06:34:35.042Z,89.45
2018-12-04T06:37:23.736Z,86.82
2018-12-04T06:40:13.559Z,91.65
2018-12-04T06:43:02.993Z,94.42
2018-12-04T06:45:52.240Z,91.92
2018-12-04T06:48:43.722Z,84.10
2018-12-04T06:51:32.091Z,90.83
2018-12-04T06:54:23.230Z,85.62
2018-12-04T06:57:11.797Z,87.25
2018-12-04T07:00:01.170Z,85.72
2018-12-04T07:02:51.225Z,78.35
2018-12-04T07:05:42.829Z,83.00
2018-12-04T07:08:32.202Z,81.57
2018-12-04T07:11:20.415Z,85.65
2018-12-04T07:14:09.209Z,83.52
2018-12-04T07:16:57.944Z,89.30
2018-12-04T07:19:49.061Z,84.77
2018-12-04T07:22:39.589Z,83.22
2018-12-04T07:25:29.032Z,88.60
2018-12-04T07:28:19.727Z,93.75
2018-12-04T07:31:08.333Z,74.27
2018-12-04T07:33:57.713Z,80.35
2018-12-04T07:36:47.954Z,82.57
2018-12-04T07:39:36.918Z,73.57
2018-12-04T07:42:27.406Z,73.50
2018-12-04T07:45:16.566Z,76.25
2018-12-04T07:48:06.673Z,73.45
2018-12-04T07:50:55.609Z,72.45
2018-12-04T07:53:44.437Z,76.67
2018-12-04T07:56:33.968Z,82.50
2018-12-04T07:59:23.528Z,70.42
2018-12-04T08:02:19.099Z,76.72
2018-12-04T08:05:10.493Z,76.00
2018-12-04T08:08:00.760Z,72.82
2018-12-04T08:10:50.167Z,80.17
2018-12-04T08:13:37.788Z,73.17
2018-12-04T08:16:26.176Z,71.77
2018-12-04T08:19:14.276Z,72.37
2018-12-04T08:22:09.311Z,70.30
2018-12-04T08:25:03.899Z,72.65
2018-12-04T08:27:55.136Z,75.85
2018-12-04T08:30:44.666Z,68.30
2018-12-04T08:33:34.226Z,73.05
2018-12-04T08:36:22.885Z,84.97
2018-12-04T08:39:13.316Z,72.67
2018-12-04T08:42:02.393Z,81.60
2018-12-04T08:44:50.283Z,72.70
2018-12-04T08:47:39.077Z,78.50
2018-12-04T08:50:28.096Z,77.82
2018-12-04T08:53:17.092Z,72.92
2018-12-04T08:56:06.857Z,75.90
2018-12-04T08:58:58.398Z,78.75
2018-12-04T09:01:46.566Z,73.57
2018-12-04T09:04:34.383Z,74.55
2018-12-04T09:07:22.336Z,71.77
2018-12-04T09:10:10.530Z,74.05
2018-12-04T09:12:58.891Z,77.90
2018-12-04T09:15:47.195Z,79.07
2018-12-04T09:18:35.861Z,75.17
2018-12-04T09:21:24.111Z,75.47
2018-12-04T09:24:13.043Z,77.37
2018-12-04T09:27:05.550Z,81.50
2018-12-04T09:29:52.881Z,84.95
2018-12-04T09:32:41.241Z,81.37
2018-12-04T09:35:30.983Z,84.90
2018-12-04T09:38:20.779Z,81.20
2018-12-04T09:41:14.895Z,81.05
2018-12-04T09:44:08.453Z,78.80
2018-12-04T09:47:00.944Z,79.92
2018-12-04T09:49:55.539Z,80.25
2018-12-04T09:52:52.283Z,89.65
2018-12-04T09:55:41.559Z,74.58
2018-12-04T09:58:34.471Z,73.17
2018-12-04T10:01:23.972Z,89.15
2018-12-04T10:04:11.837Z,79.62
2018-12-04T10:07:01.683Z,83.12
2018-12-04T10:09:50.892Z,81.10
2018-12-04T10:12:39.630Z,77.60
2018-12-04T10:15:28.109Z,74.75
2018-12-04T10:18:18.288Z,87.42
2018-12-04T10:21:07.329Z,74.27
2018-12-04T10:23:55.805Z,75.92
2018-12-04T10:26:43.733Z,74.95
2018-12-04T10:29:31.483Z,77.42
2018-12-04T10:32:19.204Z,87.78
2018-12-04T10:35:06.974Z,86.30
2018-12-04T10:37:56.553Z,85.53
2018-12-04T10:40:45.225Z,83.95
2018-12-04T10:43:33.800Z,80.32
2018-12-04T10:46:23.334Z,85.42
2018-12-04T10:49:11.917Z,93.37
2018-12-04T10:52:00.195Z,81.75
2018-12-04T10:54:48.662Z,80.38
2018-12-04T10:57:36.657Z,83.58
2018-12-04T11:00:29.081Z,77.42
2018-12-04T11:03:18.248Z,77.82
2018-12-04T11:06:06.895Z,89.22
2018-12-04T11:08:56.417Z,77.55
2018-12-04T11:11:47.145Z,87.60
2018-12-04T11:14:38.219Z,77.82
2018-12-04T11:17:28.918Z,87.95
2018-12-04T11:20:20.973Z,76.90
2018-12-04T11:23:09.478Z,88.35
2018-12-04T11:26:00.016Z,82.27
2018-12-04T11:28:49.112Z,80.53
2018-12-04T11:31:37.832Z,81.63
2018-12-04T11:34:26.939Z,80.30
2018-12-04T11:37:15.712Z,77.45
2018-12-04T11:40:04.721Z,82.72
2018-12-04T11:42:53.075Z,89.67
2018-12-04T11:45:53.798Z,81.97
2018-12-04T11:48:43.771Z,86.55
2018-12-04T11:51:32.409Z,82.92
2018-12-04T11:54:23.458Z,85.42
2018-12-04T11:57:13.673Z,91.72
2018-12-04T12:00:04.105Z,83.92
2018-12-04T12:02:54.861Z,88.78
2018-12-04T12:05:44.030Z,92.65
2018-12-04T12:08:35.011Z,84.58
2018-12-04T12:11:23.683Z,96.50
2018-12-04T12:14:12.363Z,91.82
2018-12-04T12:17:00.902Z,95.85
2018-12-04T12:19:49.687Z,90.53
2018-12-04T12:22:37.620Z,96.12
2018-12-04T12:25:27.336Z,96.87
2018-12-04T12:28:17.494Z,97.45
2018-12-04T12:31:05.586Z,83.35
2018-12-04T12:33:53.323Z,93.50
